Time;durP1;ratioP1;P1;durP2;ratioP2;P2;SDS_P1;SDS_P2;PMS_P1;PMS_P2;Temp;Humidity;BMP_temperature;BMP_pressure;BME280_temperature;BME280_humidity;BME280_pressure;Samples;Min_cycle;Max_cycle;Signal;HPM_P1;HPM_P2
2023/02/06 00:01:19;;;;;;;31.23;17.27;;;2.90;99.90;;;6.38;57.50;99617.41;5033846;28;20045;-50
2023/02/06 00:03:47;;;;;;;30.20;18.27;;;2.90;99.90;;;6.40;57.37;99630.56;5033746;28;20060;-48
2023/02/06 00:06:15;;;;;;;31.63;16.77;;;2.90;99.90;;;6.43;57.39;99617.97;5032812;28;20037;-47
2023/02/06 00:08:42;;;;;;;33.13;19.20;;;3.00;99.90;;;6.45;57.18;99609.97;5033791;28;20048;-46
2023/02/06 00:11:15;;;;;;;27.90;16.13;;;3.00;99.90;;;6.49;57.73;99614.13;5032522;28;20038;-48
2023/02/06 00:13:44;;;;;;;29.90;17.40;;;3.10;99.90;;;6.49;57.14;99615.03;5033219;28;20049;-45
2023/02/06 00:16:17;;;;;;;32.03;17.23;;;3.20;99.90;;;6.47;57.63;99616.88;5032648;28;20433;-46
2023/02/06 00:18:45;;;;;;;33.10;18.30;;;3.10;99.90;;;6.45;57.41;99618.75;5034092;28;20409;-47
2023/02/06 00:21:13;;;;;;;32.13;18.43;;;3.10;99.90;;;6.50;57.78;99615.84;5033885;28;20046;-46
2023/02/06 00:23:41;;;;;;;32.13;20.30;;;3.10;99.90;;;6.52;58.01;99613.97;5032228;28;20054;-48
2023/02/06 00:26:08;;;;;;;29.93;19.13;;;3.20;99.90;;;6.56;57.61;99612.00;5034458;28;20046;-47
2023/02/06 00:28:36;;;;;;;31.80;18.30;;;3.20;99.90;;;6.55;57.89;99611.13;5032651;28;20049;-47
2023/02/06 00:31:06;;;;;;;36.53;19.50;;;3.20;99.90;;;6.53;57.19;99613.03;5033473;28;20041;-48
2023/02/06 00:33:34;;;;;;;33.80;20.07;;;3.10;99.90;;;6.50;57.72;99616.72;5033317;28;20033;-45
2023/02/06 00:36:03;;;;;;;36.50;21.70;;;3.10;99.90;;;6.53;57.82;99620.97;5033725;28;20056;-46
2023/02/06 00:38:31;;;;;;;35.90;19.47;;;3.10;99.90;;;6.54;57.17;99620.03;5033455;28;20042;-50
2023/02/06 00:40:58;;;;;;;36.30;19.10;;;3.20;99.90;;;6.55;57.55;99620.88;5031764;28;20084;-50
2023/02/06 00:43:26;;;;;;;35.00;18.53;;;3.20;99.90;;;6.53;57.20;99618.31;5015275;28;20528;-45
2023/02/06 00:45:56;;;;;;;33.37;19.33;;;3.20;99.90;;;6.56;57.53;99623.44;5033160;28;20052;-47
2023/02/06 00:48:25;;;;;;;38.03;19.90;;;3.20;99.90;;;6.55;56.92;99623.53;5040366;28;20045;-49
2023/02/06 00:50:53;;;;;;;33.53;17.83;;;3.20;99.90;;;6.54;57.83;99624.47;5031835;28;20424;-46
2023/02/06 00:53:21;;;;;;;35.47;20.87;;;3.10;99.90;;;6.50;56.87;99623.78;5031701;28;20052;-47
2023/02/06 00:55:49;;;;;;;31.90;18.10;;;3.10;99.90;;;6.48;57.26;99618.59;5023201;28;20060;-47
2023/02/06 00:58:16;;;;;;;37.07;18.47;;;3.10;99.90;;;6.46;57.10;99622.28;5032296;28;20049;-47
2023/02/06 01:00:44;;;;;;;32.53;17.90;;;3.10;99.90;;;6.41;57.00;99617.22;5032563;28;20052;-49
2023/02/06 01:03:12;;;;;;;33.97;18.67;;;3.00;99.90;;;6.38;57.36;99627.13;5030964;28;20049;-45
2023/02/06 01:05:42;;;;;;;34.23;19.13;;;3.00;99.90;;;6.39;57.21;99631.47;5032981;28;20110;-46
2023/02/06 01:08:11;;;;;;;33.87;18.00;;;3.00;99.90;;;6.40;57.44;99626.13;5032924;28;20040;-46
2023/02/06 01:10:43;;;;;;;33.13;20.23;;;3.00;99.90;;;6.36;57.22;99632.53;5032801;28;20046;-47
2023/02/06 01:13:11;;;;;;;34.63;19.53;;;2.80;99.90;;;6.27;56.62;99633.88;5022610;28;20052;-48
2023/02/06 01:15:40;;;;;;;40.23;19.30;;;2.70;99.90;;;6.24;56.91;99635.81;5031653;28;20424;-47
2023/02/06 01:18:08;;;;;;;42.73;21.03;;;2.80;99.90;;;6.20;56.96;99637.78;5030932;28;20049;-50
2023/02/06 01:20:36;;;;;;;34.57;19.37;;;2.70;99.90;;;6.18;57.92;99629.09;5031645;28;20050;-50
2023/02/06 01:23:03;;;;;;;37.50;21.20;;;2.70;99.90;;;6.12;57.77;99626.78;5030508;28;20045;-47
2023/02/06 01:25:31;;;;;;;41.90;20.50;;;2.70;99.90;;;6.11;56.75;99631.22;5031345;28;20049;-47
2023/02/06 01:27:59;;;;;;;42.60;20.63;;;2.70;99.90;;;6.15;57.35;99628.44;5030912;28;20045;-48
2023/02/06 01:30:26;;;;;;;44.23;19.53;;;2.70;99.90;;;6.16;57.18;99635.41;5039329;28;20041;-46
2023/02/06 01:32:56;;;;;;;35.70;20.03;;;2.70;99.90;;;6.18;57.83;99634.38;5038757;28;20049;-47
2023/02/06 01:35:24;;;;;;;36.10;20.40;;;2.80;99.90;;;6.20;57.84;99637.78;5039864;28;20050;-46
2023/02/06 01:37:51;;;;;;;35.93;19.30;;;2.80;99.90;;;6.22;57.17;99637.72;5032093;28;20408;-47
2023/02/06 01:40:19;;;;;;;35.90;20.23;;;2.80;99.90;;;6.24;57.77;99630.53;5032254;28;20042;-43
2023/02/06 01:42:46;;;;;;;42.50;19.83;;;2.80;99.90;;;6.24;57.23;99638.47;5029431;28;20461;-42
2023/02/06 01:45:25;;;;;;;40.47;20.60;;;2.80;99.90;;;6.22;57.17;99633.28;5030775;28;20045;-43
2023/02/06 01:48:03;;;;;;;36.43;19.67;;;2.80;99.90;;;6.21;57.38;99625.44;5031035;28;20049;-42
2023/02/06 01:50:34;;;;;;;36.60;19.47;;;2.80;99.90;;;6.15;56.81;99625.78;5030812;28;20049;-43
2023/02/06 01:53:05;;;;;;;37.07;19.40;;;2.70;99.90;;;6.10;57.90;99624.22;5022043;28;20049;-41
2023/02/06 01:55:35;;;;;;;38.77;19.73;;;2.60;99.90;;;6.10;57.23;99629.50;5030896;28;20500;-44
2023/02/06 01:58:04;;;;;;;38.17;19.97;;;2.70;99.90;;;6.10;57.04;99623.38;5030635;28;20060;-47
2023/02/06 02:00:32;;;;;;;42.47;21.50;;;2.70;99.90;;;6.04;57.35;99621.06;5038351;28;20046;-44
2023/02/06 02:03:00;;;;;;;39.13;20.10;;;2.60;99.90;;;6.00;57.55;99622.19;5029998;28;20060;-43
2023/02/06 02:05:32;;;;;;;41.47;21.23;;;2.50;99.90;;;6.05;57.29;99614.84;5030517;28;20045;-45
2023/02/06 02:08:15;;;;;;;35.47;19.70;;;2.60;99.90;;;6.08;57.72;99612.88;5030486;28;20049;-42
2023/02/06 02:10:43;;;;;;;34.87;19.37;;;2.70;99.90;;;6.14;56.97;99616.13;5022552;28;20045;-42
2023/02/06 02:13:11;;;;;;;39.47;20.73;;;2.80;99.90;;;6.19;57.95;99622.03;5021034;28;20519;-42
2023/02/06 02:16:24;;;;;;;35.70;19.00;;;2.80;99.90;;;6.12;57.59;99616.22;5029881;28;20050;-45
2023/02/06 02:19:11;;;;;;;33.47;21.13;;;2.90;99.90;;;6.22;57.29;99611.25;5039987;28;20060;-45
2023/02/06 02:21:53;;;;;;;34.33;18.73;;;2.90;99.90;;;6.25;56.69;99611.09;5038213;28;20045;-41
2023/02/06 02:25:01;;;;;;;37.97;19.03;;;2.90;99.90;;;6.23;57.23;99610.34;5023249;28;20092;-41
2023/02/06 02:28:07;;;;;;;37.40;20.67;;;2.90;99.90;;;6.24;56.63;99619.97;5024292;28;20722;-43
2023/02/06 02:31:26;;;;;;;40.33;19.47;;;2.80;99.90;;;6.15;57.51;99623.97;5013543;28;20501;-45
2023/02/06 02:34:42;;;;;;;35.07;19.10;;;2.80;99.90;;;6.17;57.05;99618.63;5026827;28;20057;-43
2023/02/06 02:37:46;;;;;;;32.33;18.20;;;2.80;99.90;;;6.22;57.75;99608.63;5038066;28;20053;-42
2023/02/06 02:40:20;;;;;;;34.63;19.33;;;2.90;99.90;;;6.26;56.90;99610.16;5006513;28;20046;-42
2023/02/06 02:43:09;;;;;;;39.77;20.40;;;2.80;99.90;;;6.20;57.39;99613.13;5037816;28;20420;-43
2023/02/06 02:45:52;;;;;;;39.03;20.97;;;2.80;99.90;;;6.20;57.46;99608.69;5024745;28;20045;-42
2023/02/06 02:48:27;;;;;;;39.43;20.87;;;2.80;99.90;;;6.23;57.63;99605.03;5006585;28;20424;-42
2023/02/06 02:50:56;;;;;;;35.77;20.10;;;2.80;99.90;;;6.23;57.04;99605.88;5030157;28;20497;-42
2023/02/06 02:53:24;;;;;;;40.53;20.10;;;2.80;99.90;;;6.20;57.22;99616.63;5037133;28;20048;-43
2023/02/06 02:55:51;;;;;;;33.90;19.80;;;2.80;99.90;;;6.12;56.48;99610.91;5021552;28;20420;-42
2023/02/06 02:58:25;;;;;;;38.20;22.67;;;2.70;99.90;;;6.09;57.35;99611.09;5029752;28;20053;-42
2023/02/06 03:01:00;;;;;;;43.37;22.27;;;2.60;99.90;;;6.11;57.24;99603.94;5029686;28;20425;-43
2023/02/06 03:03:30;;;;;;;34.83;19.73;;;2.70;99.90;;;6.13;56.96;99607.34;5028790;28;20521;-42
2023/02/06 03:06:38;;;;;;;39.10;20.63;;;2.70;99.90;;;6.15;57.62;99599.34;5029457;28;20048;-43
2023/02/06 03:09:45;;;;;;;41.53;21.27;;;2.70;99.90;;;6.18;57.37;99593.84;5007682;28;20046;-43
2023/02/06 03:12:33;;;;;;;40.00;20.97;;;2.80;99.90;;;6.20;57.63;99590.19;5030233;28;20049;-46
2023/02/06 03:15:23;;;;;;;38.57;21.60;;;2.80;99.90;;;6.26;56.96;99592.50;5029344;28;20531;-42
2023/02/06 03:18:11;;;;;;;38.17;20.40;;;2.80;99.90;;;6.24;57.37;99591.75;5029851;28;20050;-43
2023/02/06 03:20:44;;;;;;;40.00;21.23;;;2.80;99.90;;;6.24;57.46;99588.22;5009421;28;20045;-47
2023/02/06 03:23:26;;;;;;;38.90;20.40;;;2.80;99.90;;;6.24;57.23;99590.84;5030293;28;20056;-42
2023/02/06 03:25:59;;;;;;;37.47;21.07;;;2.90;99.90;;;6.29;57.35;99592.31;5033751;28;20058;-42
2023/02/06 03:28:36;;;;;;;36.65;19.90;;;2.90;99.90;;;6.28;56.53;99597.69;5027539;28;20048;-45
2023/02/06 03:31:12;;;;;;;38.20;19.17;;;2.80;99.90;;;6.22;57.03;99601.56;5034292;28;20041;-43
2023/02/06 03:33:50;;;;;;;38.00;19.97;;;2.70;99.90;;;6.17;57.25;99597.47;5033157;28;20041;-44
2023/02/06 03:36:18;;;;;;;36.90;21.00;;;2.70;99.90;;;6.16;57.14;99596.59;5033393;28;20057;-42
2023/02/06 03:38:49;;;;;;;35.83;20.37;;;2.70;99.90;;;6.15;57.46;99607.28;5034476;28;20056;-44
2023/02/06 03:41:24;;;;;;;42.20;21.33;;;2.60;99.90;;;6.09;57.46;99603.16;5033066;28;20068;-43
2023/02/06 03:43:53;;;;;;;37.97;20.60;;;2.60;99.90;;;6.01;57.37;99600.94;5025302;28;20045;-42
2023/02/06 03:46:24;;;;;;;36.70;20.77;;;2.50;99.90;;;5.99;57.13;99594.91;5026333;28;20037;-41
2023/02/06 03:48:58;;;;;;;39.30;21.03;;;2.50;99.90;;;5.98;57.17;99603.75;5032948;28;20069;-42
2023/02/06 03:51:48;;;;;;;35.10;19.33;;;2.50;99.90;;;5.89;57.77;99607.72;5025628;28;20048;-47
2023/02/06 03:54:20;;;;;;;39.57;20.60;;;2.50;99.90;;;5.84;57.21;99616.84;5025303;28;20153;-44
2023/02/06 03:56:58;;;;;;;42.17;22.13;;;2.30;99.90;;;5.78;57.79;99609.22;5034405;28;20079;-43
2023/02/06 03:59:26;;;;;;;35.33;20.63;;;2.30;99.90;;;5.77;56.87;99610.19;5026605;28;20041;-44
2023/02/06 04:02:01;;;;;;;43.67;21.47;;;2.30;99.90;;;5.75;57.13;99612.91;5032592;28;20049;-43
2023/02/06 04:04:36;;;;;;;39.83;20.87;;;2.30;99.90;;;5.71;57.98;99606.91;5032836;28;20064;-45
2023/02/06 04:07:22;;;;;;;34.67;23.03;;;2.30;99.90;;;5.72;57.46;99615.72;5033557;28;20053;-44
2023/02/06 04:09:50;;;;;;;36.13;20.03;;;2.30;99.90;;;5.79;57.18;99618.88;5033807;28;20053;-46
2023/02/06 04:12:19;;;;;;;34.80;20.07;;;2.40;99.90;;;5.83;57.53;99610.69;5033210;28;20049;-45
2023/02/06 04:14:46;;;;;;;36.00;21.87;;;2.40;99.90;;;5.85;57.23;99614.09;5033880;28;20050;-44
2023/02/06 04:17:14;;;;;;;38.60;21.27;;;2.50;99.90;;;5.91;57.18;99615.56;5032676;28;20049;-45
2023/02/06 04:19:57;;;;;;;40.60;21.67;;;2.50;99.90;;;5.95;58.02;99616.25;5033635;28;20053;-43
2023/02/06 04:22:25;;;;;;;37.07;22.53;;;2.50;99.90;;;5.94;57.84;99604.81;5033300;28;20056;-44
2023/02/06 04:24:52;;;;;;;34.13;20.30;;;2.60;99.90;;;5.92;57.89;99602.25;5033778;28;20493;-42
2023/02/06 04:27:20;;;;;;;35.23;19.83;;;2.60;99.90;;;5.88;57.50;99600.72;5033623;28;20033;-42
2023/02/06 04:29:47;;;;;;;30.97;18.47;;;2.50;99.90;;;5.91;58.07;99608.50;5033362;28;20045;-43
2023/02/06 04:32:16;;;;;;;32.20;19.90;;;2.50;99.90;;;5.86;57.51;99604.41;5033092;28;20044;-44
2023/02/06 04:34:43;;;;;;;30.57;19.63;;;2.50;99.90;;;5.79;56.79;99603.00;5033203;28;20092;-42
2023/02/06 04:37:13;;;;;;;31.77;20.30;;;2.40;99.90;;;5.80;57.50;99597.66;5033290;28;20417;-43
2023/02/06 04:39:41;;;;;;;34.17;19.07;;;2.40;99.90;;;5.81;57.09;99604.63;5033344;28;20045;-42
2023/02/06 04:42:08;;;;;;;32.47;18.97;;;2.40;99.90;;;5.85;56.82;99610.59;5032575;28;20050;-42
2023/02/06 04:44:37;;;;;;;31.03;18.57;;;2.40;99.90;;;5.82;57.08;99606.34;5030958;28;20040;-46
2023/02/06 04:47:05;;;;;;;34.50;18.90;;;2.40;99.90;;;5.82;57.41;99609.00;5032978;28;20052;-46
2023/02/06 04:49:33;;;;;;;30.93;18.50;;;2.40;99.90;;;5.89;57.49;99610.38;5033279;28;20046;-46
2023/02/06 04:52:00;;;;;;;32.37;18.33;;;2.50;99.90;;;5.94;57.65;99609.28;5032757;28;20553;-43
2023/02/06 04:54:28;;;;;;;30.83;18.23;;;2.50;99.90;;;5.98;57.60;99606.41;5031812;28;20049;-43
2023/02/06 04:56:59;;;;;;;29.70;19.00;;;2.60;99.90;;;6.03;57.06;99609.66;5033149;28;20050;-44
2023/02/06 04:59:27;;;;;;;29.70;17.43;;;2.60;99.90;;;6.02;56.83;99613.22;5025149;28;20048;-44
2023/02/06 05:01:54;;;;;;;29.50;20.67;;;2.60;99.90;;;6.04;57.40;99611.34;5032691;28;20049;-43
2023/02/06 05:04:22;;;;;;;31.93;18.60;;;2.60;99.90;;;6.07;57.19;99599.75;5031802;28;20041;-43
2023/02/06 05:06:49;;;;;;;30.00;18.40;;;2.70;99.90;;;6.09;57.04;99611.94;5032819;28;20053;-44
2023/02/06 05:09:17;;;;;;;35.20;19.93;;;2.70;99.90;;;6.10;57.12;99607.50;5032743;28;20072;-43
2023/02/06 05:11:44;;;;;;;29.47;18.90;;;2.70;99.90;;;6.10;56.87;99611.00;5032603;28;20249;-44
2023/02/06 05:14:12;;;;;;;31.30;18.17;;;2.70;99.90;;;6.09;56.61;99598.72;5039717;28;20428;-43
2023/02/06 05:16:39;;;;;;;30.90;18.97;;;2.70;99.90;;;5.97;56.45;99602.06;5032397;28;20033;-44
2023/02/06 05:19:07;;;;;;;31.63;19.40;;;2.50;99.90;;;5.95;56.25;99608.31;5031286;28;20391;-44
2023/02/06 05:21:34;;;;;;;33.80;20.10;;;2.50;99.90;;;5.90;56.99;99603.28;5032573;28;20042;-42
2023/02/06 05:24:02;;;;;;;30.50;18.40;;;2.40;99.90;;;5.91;57.05;99607.63;5032432;28;20034;-45
2023/02/06 05:26:30;;;;;;;28.57;17.70;;;2.40;99.90;;;5.90;57.43;99613.88;5031149;28;20492;-43
2023/02/06 05:28:57;;;;;;;28.13;17.20;;;2.40;99.90;;;5.87;57.12;99608.72;5032413;28;20049;-43
2023/02/06 05:31:25;;;;;;;29.10;16.50;;;2.40;99.90;;;5.85;56.62;99610.59;5032293;28;20374;-43
2023/02/06 05:33:53;;;;;;;27.20;17.40;;;2.30;99.90;;;5.80;57.16;99615.31;5032256;28;20041;-45
2023/02/06 05:36:21;;;;;;;30.87;18.57;;;2.30;99.90;;;5.81;56.66;99614.34;5032330;28;22035;-42
2023/02/06 05:38:49;;;;;;;30.13;17.60;;;2.30;99.90;;;5.81;57.18;99609.06;5032105;28;20147;-44
2023/02/06 05:41:17;;;;;;;33.43;18.27;;;2.30;99.90;;;5.82;56.70;99606.34;5031939;28;20049;-44
2023/02/06 05:43:45;;;;;;;28.70;18.23;;;2.30;99.90;;;5.85;57.07;99605.31;5032118;28;20512;-43
2023/02/06 05:46:12;;;;;;;30.10;18.03;;;2.40;99.90;;;5.87;56.74;99612.25;5031735;28;20050;-44
2023/02/06 05:48:40;;;;;;;34.97;20.73;;;2.40;99.90;;;5.92;56.90;99609.34;5031586;28;20045;-47
2023/02/06 05:51:08;;;;;;;30.60;17.93;;;2.40;99.90;;;5.95;56.15;99605.66;5031994;28;20049;-44
2023/02/06 05:53:35;;;;;;;32.40;18.43;;;2.50;99.90;;;5.99;57.07;99616.03;5031673;28;20044;-45
2023/02/06 05:56:04;;;;;;;32.60;17.63;;;2.50;99.90;;;5.99;57.17;99618.69;5031451;28;20068;-45
2023/02/06 05:58:32;;;;;;;30.37;18.70;;;2.50;99.90;;;5.99;56.68;99623.97;5032352;28;20041;-44
2023/02/06 06:01:00;;;;;;;28.13;16.47;;;2.50;99.90;;;6.01;57.12;99627.38;5031890;28;20052;-45
2023/02/06 06:03:27;;;;;;;29.23;17.40;;;2.60;99.90;;;6.01;56.51;99623.88;5031251;28;20045;-45
2023/02/06 06:05:55;;;;;;;29.87;17.13;;;2.60;99.90;;;6.00;56.54;99625.66;5031810;28;20053;-45
2023/02/06 06:08:23;;;;;;;30.47;19.93;;;2.60;99.90;;;5.99;57.19;99628.38;5031571;28;20046;-44
2023/02/06 06:10:51;;;;;;;32.43;18.60;;;2.50;99.90;;;5.92;56.78;99625.22;5031739;28;20040;-40
2023/02/06 06:13:18;;;;;;;26.97;17.27;;;2.50;99.90;;;5.89;56.66;99622.72;5029807;28;20498;-42
2023/02/06 06:15:51;;;;;;;34.07;19.37;;;2.50;99.90;;;5.88;57.42;99615.75;5031968;28;20493;-40
2023/02/06 06:18:20;;;;;;;50.53;29.27;;;2.40;99.90;;;5.87;56.72;99620.19;5031394;28;20049;-44
2023/02/06 06:20:48;;;;;;;34.60;19.70;;;2.40;99.90;;;5.89;56.53;99617.44;5030281;28;20053;-42
2023/02/06 06:23:15;;;;;;;27.90;17.37;;;2.40;99.90;;;5.90;56.53;99616.50;5030896;28;20068;-42
2023/02/06 06:25:45;;;;;;;31.77;19.20;;;2.40;99.90;;;5.91;56.41;99615.56;5031464;28;20053;-43
2023/02/06 06:28:13;;;;;;;29.77;17.67;;;2.50;99.90;;;5.95;57.27;99610.97;5031108;28;20427;-42
2023/02/06 06:30:41;;;;;;;29.93;17.70;;;2.50;99.90;;;5.97;56.03;99614.41;5029926;28;20057;-44
2023/02/06 06:33:09;;;;;;;29.93;19.33;;;2.50;99.90;;;5.94;56.58;99628.63;5030546;28;20048;-43
2023/02/06 06:35:36;;;;;;;28.10;18.13;;;2.50;99.90;;;5.94;56.21;99641.00;5030845;28;20516;-42
2023/02/06 06:38:04;;;;;;;33.00;18.27;;;2.50;99.90;;;5.87;57.02;99645.75;5030888;28;20053;-46
2023/02/06 06:40:32;;;;;;;32.40;18.43;;;2.40;99.90;;;5.88;57.07;99645.66;5030738;28;20045;-41
2023/02/06 06:43:00;;;;;;;29.30;18.20;;;2.40;99.90;;;5.89;56.89;99633.28;5037576;28;20054;-42
2023/02/06 06:45:28;;;;;;;29.90;17.57;;;2.50;99.90;;;5.86;57.15;99633.47;5030884;28;20520;-42
2023/02/06 06:47:55;;;;;;;29.37;18.20;;;2.40;99.90;;;5.87;57.18;99630.75;5031029;28;20037;-42
2023/02/06 06:50:23;;;;;;;24.83;17.47;;;2.50;99.90;;;5.92;57.02;99641.91;5030939;28;20528;-42
2023/02/06 06:52:50;;;;;;;28.37;16.40;;;2.50;99.90;;;5.93;56.54;99629.53;5030086;28;20072;-44
2023/02/06 06:55:18;;;;;;;27.73;17.80;;;2.50;99.90;;;5.95;56.51;99632.09;5030991;28;20049;-42
2023/02/06 06:57:46;;;;;;;31.77;18.67;;;2.50;99.90;;;5.93;56.18;99624.25;5029617;28;20052;-42
2023/02/06 07:00:14;;;;;;;29.73;17.87;;;2.40;99.90;;;5.92;56.93;99618.13;5029009;28;20076;-42
2023/02/06 07:02:42;;;;;;;32.20;18.37;;;2.40;99.90;;;5.92;56.98;99615.47;5029179;28;20045;-41
2023/02/06 07:05:10;;;;;;;31.63;18.97;;;2.40;99.90;;;5.92;56.66;99615.47;5037699;28;20053;-42
2023/02/06 07:07:38;;;;;;;35.77;19.87;;;2.40;99.90;;;5.96;56.56;99621.50;5029520;28;20049;-42
2023/02/06 07:10:08;;;;;;;31.80;18.33;;;2.40;99.90;;;5.99;56.34;99631.03;5030456;28;20041;-42
2023/02/06 07:12:37;;;;;;;27.60;17.40;;;2.50;99.90;;;5.98;57.19;99635.47;5030492;28;20493;-41
2023/02/06 07:15:05;;;;;;;27.90;17.67;;;2.50;99.90;;;5.99;56.47;99631.91;5030658;28;20520;-42
2023/02/06 07:17:33;;;;;;;26.00;17.30;;;2.50;99.90;;;6.03;56.87;99635.22;5023173;28;20512;-42
2023/02/06 07:20:01;;;;;;;29.10;17.57;;;2.50;99.90;;;6.07;56.95;99627.03;5029501;28;20056;-42
2023/02/06 07:22:28;;;;;;;30.10;17.70;;;2.60;99.90;;;6.10;56.50;99628.66;5030256;28;20413;-41
2023/02/06 07:24:56;;;;;;;27.67;18.20;;;2.60;99.90;;;6.09;56.88;99635.75;5029482;28;20045;-41
2023/02/06 07:27:23;;;;;;;31.80;19.00;;;2.60;99.90;;;6.05;57.08;99634.22;5037254;28;20053;-42
2023/02/06 07:29:51;;;;;;;30.10;17.57;;;2.50;99.90;;;6.08;56.60;99641.97;5030337;28;20421;-42
2023/02/06 07:32:18;;;;;;;30.03;17.97;;;2.50;99.90;;;6.07;57.42;99637.63;5029973;28;20041;-42
2023/02/06 07:34:46;;;;;;;28.47;17.30;;;2.50;99.90;;;6.08;56.86;99636.66;5029119;28;20037;-42
2023/02/06 07:37:13;;;;;;;27.37;18.33;;;2.50;99.90;;;6.10;56.15;99637.44;5030363;28;20385;-42
2023/02/06 07:39:41;;;;;;;29.13;17.00;;;2.50;99.90;;;6.10;57.19;99640.09;5022415;28;20049;-42
2023/02/06 07:42:10;;;;;;;26.47;16.10;;;2.60;99.90;;;6.13;56.46;99640.84;5029798;28;20045;-41
2023/02/06 07:45:00;;;;;;;29.80;17.30;;;2.50;99.90;;;6.15;56.33;99639.84;5012324;28;20057;-41
2023/02/06 07:47:27;;;;;;;32.97;19.60;;;2.60;99.90;;;6.14;56.11;99638.13;5029518;28;20292;-42
2023/02/06 07:49:55;;;;;;;29.37;16.97;;;2.60;99.90;;;6.14;57.00;99637.28;5030426;28;20041;-43
2023/02/06 07:52:22;;;;;;;34.40;18.70;;;2.60;99.90;;;6.13;56.94;99640.84;5030009;28;20056;-42
2023/02/06 07:54:50;;;;;;;32.43;18.87;;;2.60;99.90;;;6.15;56.44;99641.66;5037116;28;20053;-43
2023/02/06 07:57:18;;;;;;;28.90;17.87;;;2.60;99.90;;;6.16;56.45;99638.91;5030325;28;20044;-41
2023/02/06 07:59:46;;;;;;;28.27;16.50;;;2.70;99.90;;;6.19;56.51;99629.97;5031242;28;20049;-42
2023/02/06 08:02:14;;;;;;;25.33;16.37;;;2.70;99.90;;;6.23;57.05;99629.69;5029984;28;20046;-44
2023/02/06 08:04:41;;;;;;;30.33;17.30;;;2.70;99.90;;;6.27;57.04;99631.22;5030216;28;20072;-42
2023/02/06 08:07:13;;;;;;;29.00;17.43;;;2.70;99.90;;;6.33;56.93;99634.47;5030235;28;20530;-42
2023/02/06 08:09:41;;;;;;;26.27;16.43;;;2.80;99.90;;;6.35;56.52;99633.44;5023342;28;20097;-42
2023/02/06 08:12:09;;;;;;;26.03;16.20;;;2.80;99.90;;;6.36;56.80;99629.00;5032460;28;20381;-42
2023/02/06 08:14:38;;;;;;;26.20;15.83;;;2.80;99.90;;;6.39;56.67;99640.25;5026032;28;20038;-42
2023/02/06 08:17:06;;;;;;;25.23;16.13;;;2.90;99.90;;;6.39;56.21;99634.97;5033567;28;20057;-43
2023/02/06 08:19:34;;;;;;;24.87;15.70;;;2.90;99.90;;;6.43;56.41;99628.56;5032544;28;20056;-43
2023/02/06 08:22:01;;;;;;;26.63;17.63;;;3.00;99.90;;;6.46;56.21;99633.69;5033657;28;20068;-42
2023/02/06 08:24:29;;;;;;;29.53;17.27;;;3.00;99.90;;;6.48;56.71;99636.25;5032205;28;20547;-43
2023/02/06 08:26:56;;;;;;;25.73;16.73;;;3.00;99.90;;;6.49;56.58;99630.00;5016522;28;20052;-43
2023/02/06 08:29:24;;;;;;;31.10;18.33;;;3.10;99.90;;;6.48;56.25;99623.88;5027624;28;20053;-42
2023/02/06 08:31:52;;;;;;;28.03;17.90;;;3.10;99.90;;;6.53;56.15;99625.41;5027875;28;20539;-42
2023/02/06 08:34:20;;;;;;;31.30;17.70;;;3.20;99.90;;;6.56;56.23;99618.16;5028006;28;21250;-42
2023/02/06 08:36:47;;;;;;;28.07;17.53;;;3.20;99.90;;;6.59;55.62;99625.94;5027126;28;20405;-45
2023/02/06 08:39:16;;;;;;;34.77;19.53;;;3.20;99.90;;;6.61;55.65;99628.47;5026075;28;20451;-44
2023/02/06 08:41:44;;;;;;;26.77;15.70;;;3.20;99.90;;;6.59;55.45;99633.88;5023857;28;20196;-42
2023/02/06 08:44:15;;;;;;;28.97;15.13;;;3.20;99.90;;;6.60;55.64;99632.06;5022547;28;20057;-43
2023/02/06 08:46:45;;;;;;;26.23;15.30;;;3.20;99.90;;;6.61;55.35;99625.81;5025255;28;20051;-42
2023/02/06 08:49:19;;;;;;;26.13;15.87;;;3.20;99.90;;;6.57;55.17;99626.94;5031674;28;20052;-42
2023/02/06 08:51:50;;;;;;;25.47;17.10;;;3.30;99.90;;;6.61;55.28;99636.41;5031742;28;20501;-43
2023/02/06 08:54:22;;;;;;;25.13;15.00;;;3.20;99.90;;;6.61;55.12;99637.28;5033089;28;20045;-42
2023/02/06 08:56:51;;;;;;;20.53;13.60;;;3.20;99.90;;;6.58;55.74;99634.78;5033234;28;20044;-43
2023/02/06 08:59:19;;;;;;;24.43;15.27;;;3.20;99.90;;;6.62;55.64;99633.69;5033064;28;20053;-42
2023/02/06 09:01:48;;;;;;;22.97;14.27;;;3.30;99.90;;;6.69;55.94;99634.19;5032966;28;20056;-42
2023/02/06 09:04:16;;;;;;;26.00;17.23;;;3.30;99.90;;;6.69;55.36;99642.13;5032946;28;20054;-44
2023/02/06 09:06:47;;;;;;;26.87;16.97;;;3.20;99.90;;;6.72;55.25;99636.66;5033002;28;20050;-43
2023/02/06 09:09:15;;;;;;;20.63;12.57;;;3.20;99.90;;;6.74;54.45;99644.50;5031743;28;20501;-43
2023/02/06 09:11:42;;;;;;;22.57;13.80;;;3.30;99.90;;;6.69;54.60;99642.97;5023195;28;20057;-43
2023/02/06 09:14:15;;;;;;;24.60;16.73;;;3.20;99.90;;;6.66;55.02;99635.19;5032887;28;20068;-43
2023/02/06 09:16:43;;;;;;;22.07;14.57;;;3.30;99.90;;;6.64;55.08;99633.59;5025332;28;20033;-42
2023/02/06 09:19:11;;;;;;;22.47;15.77;;;3.30;99.90;;;6.63;55.17;99634.53;5031396;28;20440;-42
2023/02/06 09:21:39;;;;;;;25.13;16.10;;;3.30;99.90;;;6.66;55.51;99631.72;5031311;28;20051;-43
2023/02/06 09:24:08;;;;;;;27.00;15.10;;;3.30;99.90;;;6.71;54.99;99634.97;5032519;28;20528;-43
2023/02/06 09:26:39;;;;;;;23.87;13.60;;;3.30;99.90;;;6.72;55.15;99630.50;5032503;28;20037;-42
2023/02/06 09:29:27;;;;;;;23.60;14.77;;;3.30;99.90;;;6.73;54.80;99627.78;5032435;28;20045;-42
2023/02/06 09:31:56;;;;;;;23.90;16.13;;;3.30;99.90;;;6.79;55.19;99621.28;5032384;28;20046;-43
2023/02/06 09:34:25;;;;;;;24.00;16.83;;;3.40;99.90;;;6.82;54.95;99627.22;5031935;28;20493;-42
2023/02/06 09:36:53;;;;;;;19.70;13.30;;;3.50;99.90;;;6.85;54.53;99628.88;5032328;28;20428;-43
2023/02/06 09:39:21;;;;;;;23.10;14.07;;;3.40;99.90;;;6.87;54.52;99627.81;5032274;28;20505;-42
2023/02/06 09:41:53;;;;;;;22.80;14.40;;;3.50;99.90;;;6.92;55.05;99618.75;5030980;28;20064;-42
2023/02/06 09:44:45;;;;;;;22.23;13.70;;;3.50;99.90;;;6.90;54.98;99605.59;5030824;28;20046;-42
2023/02/06 09:47:34;;;;;;;20.50;12.30;;;3.50;99.90;;;6.93;55.08;99604.59;5030378;28;20048;-42
2023/02/06 09:50:15;;;;;;;20.80;12.10;;;3.50;99.90;;;6.90;54.12;99593.22;5025712;28;20041;-42
2023/02/06 09:53:19;;;;;;;17.27;11.33;;;3.50;99.90;;;6.86;54.52;99593.47;5030613;28;20041;-41
2023/02/06 09:56:01;;;;;;;16.25;10.45;;;3.40;99.90;;;6.93;54.33;99592.19;5024230;28;20049;-44
2023/02/06 09:59:16;;;;;;;18.67;12.37;;;3.40;99.90;;;6.98;54.54;99586.59;5029447;28;20045;-41
2023/02/06 10:02:24;;;;;;;16.50;11.63;;;3.50;99.90;;;7.04;55.04;99589.75;5000712;28;20045;-42
2023/02/06 10:05:03;;;;;;;15.33;10.97;;;3.60;99.90;;;7.14;54.75;99579.47;5026796;28;20156;-41
2023/02/06 10:08:04;;;;;;;17.07;11.17;;;3.70;99.90;;;7.16;54.62;99574.09;5025219;28;20339;-42
2023/02/06 10:10:53;;;;;;;16.97;11.33;;;3.70;99.90;;;7.24;54.53;99574.47;5031195;28;20393;-40
2023/02/06 10:13:51;;;;;;;22.00;14.17;;;3.80;99.90;;;7.26;54.30;99560.16;5019725;28;20057;-42
2023/02/06 10:16:38;;;;;;;15.70;10.53;;;3.90;99.90;;;7.32;53.86;99561.59;5025711;28;20050;-41
2023/02/06 10:19:42;;;;;;;15.93;10.07;;;3.90;99.90;;;7.34;53.87;99570.31;5040490;28;20053;-41
2023/02/06 10:22:55;;;;;;;13.90;9.33;;;4.00;99.90;;;7.37;53.70;99567.47;5022732;28;20053;-42
2023/02/06 10:25:36;;;;;;;13.40;9.70;;;4.00;99.90;;;7.45;53.30;99564.34;5026035;28;20057;-42
2023/02/06 10:28:28;;;;;;;21.00;11.67;;;4.00;99.90;;;7.43;53.95;99556.50;5024590;28;20049;-42
2023/02/06 10:31:24;;;;;;;19.57;11.43;;;4.10;99.90;;;7.44;53.59;99552.91;5025012;28;20048;-40
2023/02/06 10:33:55;;;;;;;18.63;11.53;;;4.10;99.90;;;7.51;53.58;99553.38;5025643;28;20049;-43
2023/02/06 10:36:47;;;;;;;15.67;9.90;;;4.10;99.90;;;7.56;53.27;99553.06;5026380;28;20735;-42
2023/02/06 10:39:43;;;;;;;13.13;10.00;;;4.10;99.90;;;7.53;53.46;99548.81;5026653;28;20548;-42
2023/02/06 10:42:48;;;;;;;13.97;9.10;;;4.10;99.90;;;7.52;53.23;99543.63;5025994;28;20558;-42
2023/02/06 10:46:14;;;;;;;16.60;11.43;;;4.10;99.90;;;7.47;53.47;99549.22;5024853;28;20061;-42